sensor_id;sensor_type;location;lat;lon;timestamp;P1;durP1;ratioP1;P2;durP2;ratioP2
67164;SDS011;54093;50.014;19.984;2023-05-14T00:08:08;14.38;;;7.97;;
67164;SDS011;54093;50.014;19.984;2023-05-14T00:17:29;7.05;;;6.43;;
67164;SDS011;54093;50.014;19.984;2023-05-14T00:26:50;8.07;;;6.40;;
67164;SDS011;54093;50.014;19.984;2023-05-14T00:36:11;7.85;;;7.05;;
67164;SDS011;54093;50.014;19.984;2023-05-14T00:45:32;7.95;;;6.78;;
67164;SDS011;54093;50.014;19.984;2023-05-14T00:54:55;7.53;;;6.68;;
67164;SDS011;54093;50.014;19.984;2023-05-14T01:04:16;6.93;;;6.18;;
67164;SDS011;54093;50.014;19.984;2023-05-14T01:23:18;6.63;;;6.13;;
67164;SDS011;54093;50.014;19.984;2023-05-14T01:32:39;6.85;;;6.15;;
67164;SDS011;54093;50.014;19.984;2023-05-14T01:42:04;7.13;;;6.45;;
67164;SDS011;54093;50.014;19.984;2023-05-14T01:51:27;7.05;;;6.35;;
67164;SDS011;54093;50.014;19.984;2023-05-14T02:00:48;6.00;;;5.60;;
67164;SDS011;54093;50.014;19.984;2023-05-14T02:10:09;10.65;;;6.93;;
67164;SDS011;54093;50.014;19.984;2023-05-14T02:19:30;7.35;;;6.10;;
67164;SDS011;54093;50.014;19.984;2023-05-14T02:28:51;5.55;;;4.97;;
67164;SDS011;54093;50.014;19.984;2023-05-14T02:38:12;5.57;;;5.07;;
67164;SDS011;54093;50.014;19.984;2023-05-14T02:47:33;5.45;;;4.95;;
67164;SDS011;54093;50.014;19.984;2023-05-14T02:56:54;8.13;;;5.28;;
67164;SDS011;54093;50.014;19.984;2023-05-14T03:06:15;7.25;;;5.32;;
67164;SDS011;54093;50.014;19.984;2023-05-14T03:15:35;5.18;;;4.63;;
67164;SDS011;54093;50.014;19.984;2023-05-14T03:24:56;7.78;;;4.55;;
67164;SDS011;54093;50.014;19.984;2023-05-14T03:34:17;7.75;;;5.05;;
67164;SDS011;54093;50.014;19.984;2023-05-14T03:43:38;6.47;;;5.88;;
67164;SDS011;54093;50.014;19.984;2023-05-14T03:52:59;6.43;;;5.72;;
67164;SDS011;54093;50.014;19.984;2023-05-14T04:02:21;8.10;;;5.40;;
67164;SDS011;54093;50.014;19.984;2023-05-14T04:11:42;4.75;;;4.45;;
67164;SDS011;54093;50.014;19.984;2023-05-14T04:21:03;6.38;;;4.80;;
67164;SDS011;54093;50.014;19.984;2023-05-14T04:30:24;5.20;;;4.75;;
67164;SDS011;54093;50.014;19.984;2023-05-14T04:39:45;5.28;;;4.78;;
67164;SDS011;54093;50.014;19.984;2023-05-14T04:49:06;4.65;;;4.28;;
67164;SDS011;54093;50.014;19.984;2023-05-14T04:58:27;4.85;;;4.45;;
67164;SDS011;54093;50.014;19.984;2023-05-14T05:07:50;5.45;;;4.32;;
67164;SDS011;54093;50.014;19.984;2023-05-14T05:17:12;5.88;;;4.47;;
67164;SDS011;54093;50.014;19.984;2023-05-14T05:26:33;4.47;;;4.07;;
67164;SDS011;54093;50.014;19.984;2023-05-14T05:35:56;4.35;;;4.05;;
67164;SDS011;54093;50.014;19.984;2023-05-14T05:45:17;7.28;;;4.18;;
67164;SDS011;54093;50.014;19.984;2023-05-14T05:54:39;4.68;;;4.28;;
67164;SDS011;54093;50.014;19.984;2023-05-14T06:04:00;3.72;;;3.53;;
67164;SDS011;54093;50.014;19.984;2023-05-14T06:13:21;4.30;;;3.95;;
67164;SDS011;54093;50.014;19.984;2023-05-14T06:22:42;3.83;;;3.50;;
67164;SDS011;54093;50.014;19.984;2023-05-14T06:32:03;5.80;;;4.00;;
67164;SDS011;54093;50.014;19.984;2023-05-14T06:41:34;3.90;;;3.60;;
67164;SDS011;54093;50.014;19.984;2023-05-14T06:50:56;3.78;;;3.15;;
67164;SDS011;54093;50.014;19.984;2023-05-14T07:00:17;3.15;;;2.95;;
67164;SDS011;54093;50.014;19.984;2023-05-14T07:09:38;3.15;;;2.95;;
67164;SDS011;54093;50.014;19.984;2023-05-14T07:18:59;3.15;;;2.85;;
67164;SDS011;54093;50.014;19.984;2023-05-14T07:28:20;3.83;;;2.90;;
67164;SDS011;54093;50.014;19.984;2023-05-14T07:37:42;3.47;;;3.17;;
67164;SDS011;54093;50.014;19.984;2023-05-14T07:47:03;2.22;;;2.13;;
67164;SDS011;54093;50.014;19.984;2023-05-14T07:56:28;2.20;;;2.10;;
67164;SDS011;54093;50.014;19.984;2023-05-14T08:05:49;3.20;;;3.00;;
67164;SDS011;54093;50.014;19.984;2023-05-14T08:15:11;2.17;;;2.08;;
67164;SDS011;54093;50.014;19.984;2023-05-14T08:24:34;2.00;;;1.90;;
67164;SDS011;54093;50.014;19.984;2023-05-14T08:33:54;2.55;;;1.90;;
67164;SDS011;54093;50.014;19.984;2023-05-14T08:43:16;3.13;;;1.80;;
67164;SDS011;54093;50.014;19.984;2023-05-14T08:52:42;1.60;;;1.60;;
67164;SDS011;54093;50.014;19.984;2023-05-14T09:02:04;2.30;;;2.10;;
67164;SDS011;54093;50.014;19.984;2023-05-14T09:11:26;2.63;;;1.95;;
67164;SDS011;54093;50.014;19.984;2023-05-14T09:20:47;1.52;;;1.50;;
67164;SDS011;54093;50.014;19.984;2023-05-14T09:30:10;1.23;;;1.23;;
67164;SDS011;54093;50.014;19.984;2023-05-14T09:39:32;1.95;;;1.10;;
67164;SDS011;54093;50.014;19.984;2023-05-14T09:48:55;1.40;;;1.30;;
67164;SDS011;54093;50.014;19.984;2023-05-14T09:58:17;1.13;;;1.13;;
67164;SDS011;54093;50.014;19.984;2023-05-14T10:07:39;1.33;;;1.30;;
67164;SDS011;54093;50.014;19.984;2023-05-14T10:17:04;3.75;;;1.40;;
67164;SDS011;54093;50.014;19.984;2023-05-14T10:26:27;2.38;;;1.30;;
67164;SDS011;54093;50.014;19.984;2023-05-14T10:36:06;1.55;;;1.48;;
67164;SDS011;54093;50.014;19.984;2023-05-14T10:45:27;1.75;;;1.33;;
67164;SDS011;54093;50.014;19.984;2023-05-14T10:54:54;1.25;;;1.23;;
67164;SDS011;54093;50.014;19.984;2023-05-14T11:04:22;1.30;;;1.30;;
67164;SDS011;54093;50.014;19.984;2023-05-14T11:13:43;2.97;;;1.60;;
67164;SDS011;54093;50.014;19.984;2023-05-14T11:23:04;1.63;;;1.50;;
67164;SDS011;54093;50.014;19.984;2023-05-14T11:32:25;1.30;;;1.30;;
67164;SDS011;54093;50.014;19.984;2023-05-14T11:41:46;1.13;;;1.13;;
67164;SDS011;54093;50.014;19.984;2023-05-14T11:51:07;4.68;;;1.50;;
67164;SDS011;54093;50.014;19.984;2023-05-14T12:00:28;1.27;;;1.20;;
67164;SDS011;54093;50.014;19.984;2023-05-14T12:09:50;1.10;;;1.10;;
67164;SDS011;54093;50.014;19.984;2023-05-14T12:19:15;2.75;;;1.40;;
67164;SDS011;54093;50.014;19.984;2023-05-14T12:28:38;1.17;;;1.17;;
67164;SDS011;54093;50.014;19.984;2023-05-14T12:38:02;1.63;;;1.10;;
67164;SDS011;54093;50.014;19.984;2023-05-14T12:47:24;3.13;;;1.30;;
67164;SDS011;54093;50.014;19.984;2023-05-14T12:56:45;0.88;;;0.88;;
67164;SDS011;54093;50.014;19.984;2023-05-14T13:06:06;1.15;;;1.05;;
67164;SDS011;54093;50.014;19.984;2023-05-14T13:15:27;1.20;;;1.10;;
67164;SDS011;54093;50.014;19.984;2023-05-14T13:24:48;1.30;;;1.30;;
67164;SDS011;54093;50.014;19.984;2023-05-14T13:34:09;9.07;;;1.38;;
67164;SDS011;54093;50.014;19.984;2023-05-14T13:43:31;1.65;;;1.20;;
67164;SDS011;54093;50.014;19.984;2023-05-14T13:52:52;3.63;;;1.20;;
67164;SDS011;54093;50.014;19.984;2023-05-14T14:02:13;0.95;;;0.95;;
67164;SDS011;54093;50.014;19.984;2023-05-14T14:11:36;1.10;;;1.10;;
67164;SDS011;54093;50.014;19.984;2023-05-14T14:20:57;0.90;;;0.90;;
67164;SDS011;54093;50.014;19.984;2023-05-14T14:30:17;1.65;;;0.95;;
67164;SDS011;54093;50.014;19.984;2023-05-14T14:39:39;1.10;;;1.10;;
67164;SDS011;54093;50.014;19.984;2023-05-14T14:49:00;1.30;;;1.20;;
67164;SDS011;54093;50.014;19.984;2023-05-14T14:58:22;1.52;;;1.30;;
67164;SDS011;54093;50.014;19.984;2023-05-14T15:07:45;1.42;;;1.40;;
67164;SDS011;54093;50.014;19.984;2023-05-14T15:17:05;1.65;;;1.58;;
67164;SDS011;54093;50.014;19.984;2023-05-14T15:26:26;1.55;;;1.20;;
67164;SDS011;54093;50.014;19.984;2023-05-14T15:35:47;3.28;;;1.60;;
67164;SDS011;54093;50.014;19.984;2023-05-14T15:45:09;1.55;;;1.50;;
67164;SDS011;54093;50.014;19.984;2023-05-14T15:54:31;1.20;;;1.20;;
67164;SDS011;54093;50.014;19.984;2023-05-14T16:03:52;1.58;;;1.48;;
67164;SDS011;54093;50.014;19.984;2023-05-14T16:13:13;2.53;;;1.45;;
67164;SDS011;54093;50.014;19.984;2023-05-14T16:22:34;2.17;;;2.05;;
67164;SDS011;54093;50.014;19.984;2023-05-14T16:31:56;1.60;;;1.50;;
67164;SDS011;54093;50.014;19.984;2023-05-14T16:41:20;1.42;;;1.42;;
67164;SDS011;54093;50.014;19.984;2023-05-14T16:50:44;1.80;;;1.70;;
67164;SDS011;54093;50.014;19.984;2023-05-14T17:00:05;3.70;;;1.95;;
67164;SDS011;54093;50.014;19.984;2023-05-14T17:09:26;1.80;;;1.70;;
67164;SDS011;54093;50.014;19.984;2023-05-14T17:18:47;4.47;;;1.85;;
67164;SDS011;54093;50.014;19.984;2023-05-14T17:28:08;1.80;;;1.70;;
67164;SDS011;54093;50.014;19.984;2023-05-14T17:37:29;2.00;;;1.80;;
67164;SDS011;54093;50.014;19.984;2023-05-14T17:46:51;2.47;;;2.33;;
67164;SDS011;54093;50.014;19.984;2023-05-14T17:56:12;4.45;;;2.60;;
67164;SDS011;54093;50.014;19.984;2023-05-14T18:05:33;3.60;;;2.40;;
67164;SDS011;54093;50.014;19.984;2023-05-14T18:14:54;2.30;;;2.10;;
67164;SDS011;54093;50.014;19.984;2023-05-14T18:24:15;2.13;;;2.03;;
67164;SDS011;54093;50.014;19.984;2023-05-14T18:33:36;3.55;;;2.72;;
67164;SDS011;54093;50.014;19.984;2023-05-14T18:42:57;3.03;;;2.83;;
67164;SDS011;54093;50.014;19.984;2023-05-14T18:52:17;2.35;;;2.17;;
67164;SDS011;54093;50.014;19.984;2023-05-14T19:01:38;2.50;;;2.30;;
67164;SDS011;54093;50.014;19.984;2023-05-14T19:10:59;2.22;;;2.08;;
67164;SDS011;54093;50.014;19.984;2023-05-14T19:20:29;2.80;;;2.70;;
67164;SDS011;54093;50.014;19.984;2023-05-14T19:29:50;2.47;;;2.35;;
67164;SDS011;54093;50.014;19.984;2023-05-14T19:39:11;4.20;;;2.30;;
67164;SDS011;54093;50.014;19.984;2023-05-14T19:48:32;2.78;;;2.58;;
67164;SDS011;54093;50.014;19.984;2023-05-14T19:57:53;2.88;;;2.70;;
67164;SDS011;54093;50.014;19.984;2023-05-14T20:07:14;2.30;;;2.20;;
67164;SDS011;54093;50.014;19.984;2023-05-14T20:16:35;3.00;;;2.80;;
67164;SDS011;54093;50.014;19.984;2023-05-14T20:25:56;3.08;;;2.40;;
67164;SDS011;54093;50.014;19.984;2023-05-14T20:35:18;2.15;;;2.05;;
67164;SDS011;54093;50.014;19.984;2023-05-14T20:44:39;2.50;;;2.40;;
67164;SDS011;54093;50.014;19.984;2023-05-14T20:54:00;2.25;;;2.15;;
67164;SDS011;54093;50.014;19.984;2023-05-14T21:03:22;3.00;;;2.80;;
67164;SDS011;54093;50.014;19.984;2023-05-14T21:12:43;3.90;;;2.45;;
67164;SDS011;54093;50.014;19.984;2023-05-14T21:22:04;3.55;;;2.20;;
67164;SDS011;54093;50.014;19.984;2023-05-14T21:31:26;2.20;;;2.10;;
67164;SDS011;54093;50.014;19.984;2023-05-14T21:40:47;1.80;;;1.70;;
67164;SDS011;54093;50.014;19.984;2023-05-14T21:50:08;1.80;;;1.70;;
67164;SDS011;54093;50.014;19.984;2023-05-14T21:59:32;5.00;;;1.70;;
67164;SDS011;54093;50.014;19.984;2023-05-14T22:08:53;2.30;;;2.15;;
67164;SDS011;54093;50.014;19.984;2023-05-14T22:18:14;4.78;;;1.92;;
67164;SDS011;54093;50.014;19.984;2023-05-14T22:27:35;1.58;;;1.48;;
67164;SDS011;54093;50.014;19.984;2023-05-14T22:36:56;1.58;;;1.48;;
67164;SDS011;54093;50.014;19.984;2023-05-14T22:46:18;1.60;;;1.50;;
67164;SDS011;54093;50.014;19.984;2023-05-14T22:55:39;2.47;;;1.50;;
67164;SDS011;54093;50.014;19.984;2023-05-14T23:04:59;2.20;;;2.00;;
67164;SDS011;54093;50.014;19.984;2023-05-14T23:14:20;1.45;;;1.42;;
67164;SDS011;54093;50.014;19.984;2023-05-14T23:23:42;1.60;;;1.60;;
67164;SDS011;54093;50.014;19.984;2023-05-14T23:33:02;1.83;;;1.73;;
67164;SDS011;54093;50.014;19.984;2023-05-14T23:42:23;1.88;;;1.77;;
67164;SDS011;54093;50.014;19.984;2023-05-14T23:51:44;2.10;;;2.00;;
